Time;durP1;ratioP1;P1;durP2;ratioP2;P2;SDS_P1;SDS_P2;PMS_P1;PMS_P2;Temp;Humidity;BMP_temperature;BMP_pressure;BME280_temperature;BME280_humidity;BME280_pressure;Samples;Min_cycle;Max_cycle;Signal;HPM_P1;HPM_P2
2021/10/26 00:00:29;;;;;;;6.97;4.53;;;;;;;;;;4957601;29;20229;-86
2021/10/26 00:02:56;;;;;;;5.27;4.67;;;;;;;;;;4957911;29;20703;-86
2021/10/26 00:05:24;;;;;;;4.10;3.70;;;;;;;;;;4957606;29;20197;-86
2021/10/26 00:07:51;;;;;;;5.33;4.03;;;;;;;;;;4957498;29;20297;-86
2021/10/26 00:10:18;;;;;;;6.80;5.90;;;;;;;;;;4957387;29;20205;-86
2021/10/26 00:12:45;;;;;;;5.90;5.07;;;;;;;;;;4957556;29;20198;-86
2021/10/26 00:15:13;;;;;;;4.73;4.33;;;;;;;;;;4957679;29;20202;-87
2021/10/26 00:17:41;;;;;;;5.17;4.67;;;;;;;;;;4957862;29;20679;-87
2021/10/26 00:20:10;;;;;;;6.10;5.50;;;;;;;;;;4957265;29;20248;-87
2021/10/26 00:22:37;;;;;;;5.33;4.83;;;;;;;;;;4957323;29;20334;-87
2021/10/26 00:25:05;;;;;;;6.30;5.50;;;;;;;;;;4957470;29;20630;-87
2021/10/26 00:27:32;;;;;;;10.27;7.17;;;;;;;;;;4957251;29;20666;-87
2021/10/26 00:30:00;;;;;;;11.27;9.03;;;;;;;;;;4957238;28;20241;-87
2021/10/26 00:32:27;;;;;;;7.83;7.03;;;;;;;;;;4953599;28;20221;-87
2021/10/26 00:34:56;;;;;;;7.50;6.10;;;;;;;;;;4957228;29;20202;-87
2021/10/26 00:37:23;;;;;;;9.63;6.80;;;;;;;;;;4957251;29;20306;-87
2021/10/26 00:39:51;;;;;;;6.47;5.17;;;;;;;;;;4956914;29;20266;-87
2021/10/26 00:42:18;;;;;;;8.17;5.60;;;;;;;;;;4957352;29;20202;-87
2021/10/26 00:44:46;;;;;;;5.87;5.27;;;;;;;;;;4957055;29;20230;-86
2021/10/26 00:47:13;;;;;;;4.70;4.27;;;;;;;;;;4956057;28;20212;-86
2021/10/26 00:49:40;;;;;;;6.43;5.00;;;;;;;;;;4957216;29;20206;-86
2021/10/26 00:52:09;;;;;;;7.03;6.33;;;;;;;;;;4956659;29;20241;-86
2021/10/26 00:54:36;;;;;;;6.53;5.83;;;;;;;;;;4956583;29;20202;-86
2021/10/26 00:57:04;;;;;;;7.30;5.90;;;;;;;;;;4956900;29;20614;-87
2021/10/26 00:59:32;;;;;;;7.53;6.47;;;;;;;;;;4956663;29;20262;-87
2021/10/26 01:01:59;;;;;;;6.20;5.43;;;;;;;;;;4956500;29;20202;-86
2021/10/26 01:04:27;;;;;;;9.23;5.83;;;;;;;;;;4956718;29;20309;-87
2021/10/26 01:06:55;;;;;;;5.53;5.07;;;;;;;;;;4956510;29;20194;-87
2021/10/26 01:09:24;;;;;;;6.63;4.70;;;;;;;;;;4956567;29;20208;-86
2021/10/26 01:11:51;;;;;;;6.63;5.83;;;;;;;;;;4956249;29;20202;-87
2021/10/26 01:14:19;;;;;;;5.87;5.27;;;;;;;;;;4956339;29;20198;-87
2021/10/26 01:16:46;;;;;;;7.73;5.80;;;;;;;;;;4956124;29;20201;-87
2021/10/26 01:19:13;;;;;;;7.73;5.60;;;;;;;;;;4956228;29;20209;-87
2021/10/26 01:21:42;;;;;;;5.90;5.23;;;;;;;;;;4956524;29;20256;-87
2021/10/26 01:24:09;;;;;;;6.23;5.60;;;;;;;;;;4956404;29;20229;-87
2021/10/26 01:26:37;;;;;;;6.00;5.20;;;;;;;;;;4955975;29;20206;-87
2021/10/26 01:29:04;;;;;;;7.90;5.90;;;;;;;;;;4956517;29;20206;-87
2021/10/26 01:31:32;;;;;;;6.83;5.30;;;;;;;;;;4955983;29;20261;-87
2021/10/26 01:33:59;;;;;;;6.67;5.90;;;;;;;;;;4955948;29;20206;-87
2021/10/26 01:36:26;;;;;;;6.37;5.73;;;;;;;;;;4956054;29;20206;-87
2021/10/26 01:38:55;;;;;;;6.00;5.40;;;;;;;;;;4956146;29;20194;-87
2021/10/26 01:41:22;;;;;;;6.40;5.37;;;;;;;;;;4955806;29;20205;-87
2021/10/26 01:43:53;;;;;;;6.13;5.63;;;;;;;;;;4955777;29;20225;-87
2021/10/26 01:46:21;;;;;;;6.87;6.17;;;;;;;;;;4956053;29;20666;-87
2021/10/26 01:48:48;;;;;;;6.23;4.90;;;;;;;;;;4955968;29;20204;-87
2021/10/26 01:51:15;;;;;;;7.10;5.37;;;;;;;;;;4955772;29;20233;-87
2021/10/26 01:53:43;;;;;;;6.63;5.70;;;;;;;;;;4955668;29;20198;-87
2021/10/26 01:56:11;;;;;;;6.10;5.27;;;;;;;;;;4955661;29;20197;-87
2021/10/26 01:58:39;;;;;;;5.60;5.10;;;;;;;;;;4954947;28;20564;-87
2021/10/26 02:01:06;;;;;;;8.87;4.37;;;;;;;;;;4955568;29;20202;-87
2021/10/26 02:03:33;;;;;;;4.90;4.40;;;;;;;;;;4955773;29;20234;-87
2021/10/26 02:06:01;;;;;;;5.93;4.57;;;;;;;;;;4955268;29;20206;-86
2021/10/26 02:08:28;;;;;;;6.00;5.43;;;;;;;;;;4955424;29;20261;-87
2021/10/26 02:10:55;;;;;;;13.03;8.20;;;;;;;;;;4955274;29;20726;-87
2021/10/26 02:13:24;;;;;;;7.37;5.43;;;;;;;;;;4955545;29;20284;-87
2021/10/26 02:15:51;;;;;;;8.30;6.03;;;;;;;;;;4955469;29;20276;-86
2021/10/26 02:18:18;;;;;;;6.27;5.07;;;;;;;;;;4955144;29;20292;-87
2021/10/26 02:20:46;;;;;;;5.10;4.60;;;;;;;;;;4955520;29;20205;-87
2021/10/26 02:23:13;;;;;;;7.90;4.90;;;;;;;;;;4955019;29;20212;-87
2021/10/26 02:25:41;;;;;;;4.77;4.27;;;;;;;;;;4955011;29;20256;-87
2021/10/26 02:28:08;;;;;;;5.13;4.70;;;;;;;;;;4955111;29;20257;-87
2021/10/26 02:30:37;;;;;;;4.70;4.20;;;;;;;;;;4954918;29;20288;-87
2021/10/26 02:33:05;;;;;;;6.20;5.07;;;;;;;;;;4954972;29;20209;-87
2021/10/26 02:35:32;;;;;;;8.50;5.07;;;;;;;;;;4955026;29;20198;-87
2021/10/26 02:38:00;;;;;;;5.97;5.37;;;;;;;;;;4952181;29;20958;-87
2021/10/26 02:40:28;;;;;;;7.33;5.00;;;;;;;;;;4954781;29;20264;-87
2021/10/26 02:42:55;;;;;;;5.23;4.73;;;;;;;;;;4954706;29;20220;-86
2021/10/26 02:45:27;;;;;;;4.57;4.17;;;;;;;;;;4953688;29;20280;-85
2021/10/26 02:47:56;;;;;;;5.27;4.07;;;;;;;;;;4954306;29;20193;-86
2021/10/26 02:50:24;;;;;;;5.50;4.77;;;;;;;;;;4954431;29;20202;-87
2021/10/26 02:52:51;;;;;;;6.03;4.80;;;;;;;;;;4954353;29;20193;-86
2021/10/26 02:55:18;;;;;;;7.27;5.33;;;;;;;;;;4954534;29;20252;-86
2021/10/26 02:57:46;;;;;;;6.70;5.13;;;;;;;;;;4954259;29;20204;-87
2021/10/26 03:00:14;;;;;;;6.37;5.57;;;;;;;;;;4954463;29;20285;-86
2021/10/26 03:02:42;;;;;;;7.33;5.33;;;;;;;;;;4954463;29;20715;-87
2021/10/26 03:05:11;;;;;;;6.10;5.50;;;;;;;;;;4953487;29;20222;-86
2021/10/26 03:07:41;;;;;;;5.30;4.80;;;;;;;;;;4954151;29;20200;-86
2021/10/26 03:10:09;;;;;;;7.97;5.93;;;;;;;;;;4954006;28;20221;-87
2021/10/26 03:12:36;;;;;;;5.40;4.87;;;;;;;;;;4954282;29;20225;-87
2021/10/26 03:15:05;;;;;;;7.83;5.17;;;;;;;;;;4954515;29;20594;-87
2021/10/26 03:17:32;;;;;;;5.93;5.33;;;;;;;;;;4954423;29;20297;-87
2021/10/26 03:19:59;;;;;;;6.73;6.03;;;;;;;;;;4954009;29;20198;-87
2021/10/26 03:22:29;;;;;;;9.50;7.93;;;;;;;;;;4953944;29;20252;-87
2021/10/26 03:24:56;;;;;;;9.27;6.77;;;;;;;;;;4953920;29;20257;-86
2021/10/26 03:27:24;;;;;;;7.17;5.10;;;;;;;;;;4953888;29;20252;-86
2021/10/26 03:29:51;;;;;;;4.30;3.90;;;;;;;;;;4953846;29;20244;-86
2021/10/26 03:32:18;;;;;;;5.27;4.57;;;;;;;;;;4953272;29;20241;-86
2021/10/26 03:34:46;;;;;;;46.43;30.67;;;;;;;;;;4954147;29;20219;-86
2021/10/26 03:37:14;;;;;;;45.33;28.93;;;;;;;;;;4953937;29;20201;-86
2021/10/26 03:39:44;;;;;;;44.50;31.73;;;;;;;;;;4953859;29;20282;-84
2021/10/26 03:42:12;;;;;;;33.27;23.70;;;;;;;;;;4951408;29;20205;-87
2021/10/26 03:44:43;;;;;;;16.40;12.80;;;;;;;;;;4952871;29;20702;-85
2021/10/26 03:47:12;;;;;;;8.40;7.60;;;;;;;;;;4954527;29;20197;-86
2021/10/26 03:49:39;;;;;;;12.60;9.50;;;;;;;;;;4953593;29;20205;-86
2021/10/26 03:52:07;;;;;;;11.10;7.87;;;;;;;;;;4953442;29;20197;-85
2021/10/26 03:54:34;;;;;;;9.03;8.07;;;;;;;;;;4953348;29;20623;-85
2021/10/26 03:57:07;;;;;;;6.77;6.07;;;;;;;;;;4952785;29;20729;-86
2021/10/26 03:59:34;;;;;;;5.87;5.23;;;;;;;;;;4953275;29;20194;-86
2021/10/26 04:02:06;;;;;;;7.60;6.13;;;;;;;;;;4953254;29;20206;-86
2021/10/26 04:04:33;;;;;;;33.57;27.40;;;;;;;;;;4953369;29;20245;-87
2021/10/26 04:07:01;;;;;;;24.23;16.23;;;;;;;;;;4952969;29;20198;-86
2021/10/26 04:09:43;;;;;;;10.20;8.23;;;;;;;;;;4953037;29;20261;-86
2021/10/26 04:14:59;;;;;;;8.80;4.83;;;;;;;;;;4946027;29;20202;-85
2021/10/26 04:17:28;;;;;;;8.00;5.33;;;;;;;;;;4953064;29;20288;-86
2021/10/26 04:19:57;;;;;;;8.60;5.20;;;;;;;;;;4953293;29;20230;-86
2021/10/26 04:22:25;;;;;;;8.00;5.63;;;;;;;;;;4955509;28;20201;-86
2021/10/26 04:24:53;;;;;;;6.03;5.27;;;;;;;;;;4957315;29;20229;-86
2021/10/26 04:27:23;;;;;;;6.97;5.70;;;;;;;;;;4957295;29;20659;-86
2021/10/26 04:29:50;;;;;;;7.40;6.67;;;;;;;;;;4956870;29;20269;-86
2021/10/26 04:32:18;;;;;;;7.03;6.33;;;;;;;;;;4957114;29;20194;-86
2021/10/26 04:34:45;;;;;;;19.57;15.83;;;;;;;;;;4957206;29;20205;-86
2021/10/26 04:37:12;;;;;;;44.17;35.83;;;;;;;;;;4956378;29;20198;-86
2021/10/26 04:39:40;;;;;;;22.33;16.37;;;;;;;;;;4957105;29;20205;-86
2021/10/26 04:42:09;;;;;;;8.50;7.70;;;;;;;;;;4956512;29;20252;-86
2021/10/26 04:44:39;;;;;;;22.07;19.70;;;;;;;;;;4957143;29;20318;-86
2021/10/26 04:47:06;;;;;;;18.93;11.93;;;;;;;;;;4956803;29;20193;-86
2021/10/26 04:49:34;;;;;;;13.63;11.70;;;;;;;;;;4956950;29;20289;-86
2021/10/26 04:52:02;;;;;;;9.70;8.00;;;;;;;;;;4956714;29;20293;-86
2021/10/26 04:54:30;;;;;;;13.10;11.57;;;;;;;;;;4956700;29;20193;-86
2021/10/26 04:56:57;;;;;;;14.07;10.53;;;;;;;;;;4956600;29;20197;-86
2021/10/26 04:59:24;;;;;;;13.43;11.73;;;;;;;;;;4956384;29;20201;-86
2021/10/26 05:01:53;;;;;;;35.33;28.93;;;;;;;;;;4956432;29;20288;-87
2021/10/26 05:04:21;;;;;;;21.37;16.73;;;;;;;;;;4956379;29;20194;-86
2021/10/26 05:06:48;;;;;;;13.27;11.90;;;;;;;;;;4956366;29;20206;-86
2021/10/26 05:09:15;;;;;;;13.67;7.20;;;;;;;;;;4956407;29;20212;-86
2021/10/26 05:11:43;;;;;;;15.77;7.87;;;;;;;;;;4956303;29;20205;-86
2021/10/26 05:14:10;;;;;;;40.97;29.97;;;;;;;;;;4956336;29;20671;-86
2021/10/26 05:16:38;;;;;;;59.73;43.90;;;;;;;;;;4956075;29;20233;-86
2021/10/26 05:19:08;;;;;;;32.87;23.23;;;;;;;;;;4956711;29;20233;-86
2021/10/26 05:21:35;;;;;;;23.40;18.03;;;;;;;;;;4956303;29;20201;-86
2021/10/26 05:24:02;;;;;;;22.00;17.80;;;;;;;;;;4956210;29;20198;-85
2021/10/26 05:26:30;;;;;;;10.80;9.70;;;;;;;;;;4955949;29;20703;-86
2021/10/26 05:28:57;;;;;;;11.33;10.17;;;;;;;;;;4956230;29;20308;-86
2021/10/26 05:31:24;;;;;;;11.40;9.30;;;;;;;;;;4955906;29;20284;-86
2021/10/26 05:33:52;;;;;;;13.13;9.50;;;;;;;;;;4955919;28;20281;-86
2021/10/26 05:36:21;;;;;;;24.73;18.93;;;;;;;;;;4955752;29;20236;-86
2021/10/26 05:38:48;;;;;;;19.00;14.57;;;;;;;;;;4956079;29;20245;-86
2021/10/26 05:41:15;;;;;;;10.93;7.40;;;;;;;;;;4956115;29;20197;-86
2021/10/26 05:43:43;;;;;;;10.97;8.97;;;;;;;;;;4955737;29;20675;-86
2021/10/26 05:46:10;;;;;;;10.70;8.90;;;;;;;;;;4955788;29;20702;-86
2021/10/26 05:48:38;;;;;;;11.97;8.67;;;;;;;;;;4955784;29;20198;-86
2021/10/26 05:51:05;;;;;;;10.33;9.17;;;;;;;;;;4955791;29;20198;-86
2021/10/26 05:53:34;;;;;;;10.30;9.10;;;;;;;;;;4955471;29;20664;-86
2021/10/26 05:56:01;;;;;;;10.77;8.13;;;;;;;;;;4955799;29;20221;-86
2021/10/26 05:58:29;;;;;;;11.33;8.70;;;;;;;;;;4955665;29;20678;-86
2021/10/26 06:00:56;;;;;;;9.67;8.73;;;;;;;;;;4955446;29;20237;-86
2021/10/26 06:03:23;;;;;;;8.47;7.53;;;;;;;;;;4955493;29;20621;-87
2021/10/26 06:05:51;;;;;;;14.00;8.50;;;;;;;;;;4955621;29;20703;-86
2021/10/26 06:08:18;;;;;;;11.40;7.37;;;;;;;;;;4955629;29;20354;-86
2021/10/26 06:10:52;;;;;;;8.57;7.00;;;;;;;;;;4954993;29;20201;-86
2021/10/26 06:13:23;;;;;;;10.53;7.73;;;;;;;;;;4955767;29;20229;-86
2021/10/26 06:15:51;;;;;;;12.33;8.90;;;;;;;;;;4955139;29;20183;-86
2021/10/26 06:18:19;;;;;;;14.07;10.50;;;;;;;;;;4954914;29;20205;-86
2021/10/26 06:20:46;;;;;;;19.03;13.10;;;;;;;;;;4954248;29;20691;-86
2021/10/26 06:23:14;;;;;;;13.83;11.87;;;;;;;;;;4955103;29;20265;-87
2021/10/26 06:25:41;;;;;;;14.57;11.33;;;;;;;;;;4954983;29;20225;-86
2021/10/26 06:28:10;;;;;;;15.37;11.07;;;;;;;;;;4955040;29;20212;-86
2021/10/26 06:30:37;;;;;;;12.10;8.60;;;;;;;;;;4954873;29;20288;-86
2021/10/26 06:33:05;;;;;;;11.47;7.97;;;;;;;;;;4955344;29;20205;-86
2021/10/26 06:35:32;;;;;;;9.07;7.37;;;;;;;;;;4954989;29;20289;-86
2021/10/26 06:38:01;;;;;;;9.73;7.27;;;;;;;;;;4955104;29;20210;-86
2021/10/26 06:40:29;;;;;;;9.73;6.80;;;;;;;;;;4955038;29;20209;-86
2021/10/26 06:42:57;;;;;;;8.83;7.50;;;;;;;;;;4954988;29;20208;-86
2021/10/26 06:45:26;;;;;;;8.47;7.00;;;;;;;;;;4954160;28;20281;-86
2021/10/26 06:47:54;;;;;;;23.20;8.43;;;;;;;;;;4954911;29;20201;-86
2021/10/26 06:50:21;;;;;;;9.80;6.83;;;;;;;;;;4954987;29;20203;-86
2021/10/26 06:52:48;;;;;;;9.00;6.20;;;;;;;;;;4954769;29;20206;-87
2021/10/26 06:55:18;;;;;;;6.67;4.80;;;;;;;;;;4954844;29;20217;-86
2021/10/26 06:57:48;;;;;;;4.97;4.33;;;;;;;;;;4954675;29;20196;-87
2021/10/26 07:00:16;;;;;;;4.63;4.23;;;;;;;;;;4954727;29;20623;-86
2021/10/26 07:02:48;;;;;;;5.57;4.83;;;;;;;;;;4954375;29;20212;-87
2021/10/26 07:05:19;;;;;;;6.00;5.40;;;;;;;;;;4954234;29;20225;-87
2021/10/26 07:07:46;;;;;;;5.43;4.60;;;;;;;;;;4954376;29;20200;-86
2021/10/26 07:10:13;;;;;;;9.80;6.60;;;;;;;;;;4954432;29;20202;-87
2021/10/26 07:12:41;;;;;;;5.60;4.30;;;;;;;;;;4954455;29;20679;-87
2021/10/26 07:15:09;;;;;;;4.77;4.17;;;;;;;;;;4954236;29;20194;-87
2021/10/26 07:17:37;;;;;;;4.83;4.10;;;;;;;;;;4954504;29;20710;-87
2021/10/26 07:20:09;;;;;;;4.87;4.00;;;;;;;;;;4954544;29;20580;-87
2021/10/26 07:22:36;;;;;;;4.70;4.30;;;;;;;;;;4954322;29;20229;-87
2021/10/26 07:25:06;;;;;;;4.70;4.30;;;;;;;;;;4954290;29;20198;-87
2021/10/26 07:27:33;;;;;;;4.77;4.37;;;;;;;;;;4954151;29;20230;-87
2021/10/26 07:30:01;;;;;;;5.53;4.10;;;;;;;;;;4954228;29;20674;-86
2021/10/26 07:32:28;;;;;;;5.83;5.23;;;;;;;;;;4954283;29;20643;-87
2021/10/26 07:34:55;;;;;;;7.00;4.17;;;;;;;;;;4954170;29;20201;-87
2021/10/26 07:37:29;;;;;;;5.43;3.97;;;;;;;;;;4954596;29;20280;-87
2021/10/26 07:39:56;;;;;;;7.43;4.47;;;;;;;;;;4954662;29;20265;-88
2021/10/26 07:42:23;;;;;;;5.40;4.90;;;;;;;;;;4954205;29;20198;-87
2021/10/26 07:44:51;;;;;;;4.73;4.23;;;;;;;;;;4954788;29;20249;-87
2021/10/26 07:47:20;;;;;;;4.43;4.03;;;;;;;;;;4954402;29;20205;-87
2021/10/26 07:49:49;;;;;;;5.23;4.17;;;;;;;;;;4954406;29;20202;-86
2021/10/26 07:52:18;;;;;;;5.43;4.80;;;;;;;;;;4954414;29;20678;-87
2021/10/26 07:54:50;;;;;;;4.50;4.10;;;;;;;;;;4954333;29;20265;-88
2021/10/26 07:57:18;;;;;;;6.03;4.23;;;;;;;;;;4956079;28;20204;-87
2021/10/26 07:59:46;;;;;;;3.47;3.17;;;;;;;;;;4958417;29;20210;-87
2021/10/26 08:02:14;;;;;;;6.07;3.83;;;;;;;;;;4958357;29;20611;-88
2021/10/26 08:04:43;;;;;;;3.90;3.50;;;;;;;;;;4958286;29;20205;-88
2021/10/26 08:07:11;;;;;;;6.50;3.17;;;;;;;;;;4957983;29;20225;-88
2021/10/26 08:09:38;;;;;;;4.50;3.00;;;;;;;;;;4958382;29;20198;-87
2021/10/26 08:12:08;;;;;;;6.33;4.23;;;;;;;;;;4957960;29;20202;-87
2021/10/26 08:14:35;;;;;;;4.80;2.70;;;;;;;;;;4958015;29;20218;-87
2021/10/26 08:17:02;;;;;;;4.63;3.33;;;;;;;;;;4957843;29;20226;-88
2021/10/26 08:19:30;;;;;;;3.33;3.03;;;;;;;;;;4958009;29;20256;-87
2021/10/26 08:21:58;;;;;;;4.13;2.97;;;;;;;;;;4957797;29;20702;-88
2021/10/26 08:24:29;;;;;;;8.10;3.33;;;;;;;;;;4957790;29;20215;-87
2021/10/26 08:26:59;;;;;;;4.60;3.60;;;;;;;;;;4957443;29;20315;-88
2021/10/26 08:29:37;;;;;;;5.40;4.53;;;;;;;;;;4957480;29;20284;-88
2021/10/26 08:32:24;;;;;;;6.97;5.00;;;;;;;;;;4957620;29;20308;-87
2021/10/26 08:34:53;;;;;;;5.60;4.97;;;;;;;;;;4957853;29;20201;-87
2021/10/26 08:37:21;;;;;;;11.43;7.17;;;;;;;;;;4957735;29;20292;-88
2021/10/26 08:39:48;;;;;;;5.37;3.97;;;;;;;;;;4957487;29;20210;-88
2021/10/26 08:42:18;;;;;;;4.97;4.57;;;;;;;;;;4957712;29;20204;-88
2021/10/26 08:44:46;;;;;;;6.23;3.70;;;;;;;;;;4958030;29;20202;-89
2021/10/26 08:47:16;;;;;;;4.00;3.60;;;;;;;;;;4957213;29;20265;-87
2021/10/26 08:49:45;;;;;;;4.33;3.33;;;;;;;;;;4957458;29;20207;-88
2021/10/26 08:52:12;;;;;;;6.73;4.23;;;;;;;;;;4957285;29;20212;-88
2021/10/26 08:54:39;;;;;;;6.23;4.53;;;;;;;;;;4957524;29;20687;-88
2021/10/26 08:57:06;;;;;;;4.53;3.70;;;;;;;;;;4957166;29;20193;-90
2021/10/26 08:59:34;;;;;;;4.37;3.37;;;;;;;;;;4957651;29;20233;-89
2021/10/26 09:02:02;;;;;;;6.53;4.47;;;;;;;;;;4957190;29;20206;-89
2021/10/26 09:04:31;;;;;;;6.43;3.97;;;;;;;;;;4957451;29;20202;-88
2021/10/26 09:07:04;;;;;;;5.00;3.97;;;;;;;;;;4956693;28;20229;-89
2021/10/26 09:09:32;;;;;;;10.27;4.20;;;;;;;;;;4957224;29;20193;-88
2021/10/26 09:17:45;;;;;;;3.37;3.07;;;;;;;;;;4879530;29;20208;-89
2021/10/26 09:20:15;;;;;;;3.03;2.73;;;;;;;;;;4939818;29;20202;-88
2021/10/26 09:22:48;;;;;;;6.03;2.83;;;;;;;;;;4957765;29;20636;-88
2021/10/26 09:25:15;;;;;;;2.30;1.70;;;;;;;;;;4957131;29;20221;-89
2021/10/26 09:27:43;;;;;;;2.67;2.40;;;;;;;;;;4956557;29;20229;-89
2021/10/26 09:30:13;;;;;;;3.53;2.70;;;;;;;;;;4956409;29;20241;-89
2021/10/26 09:32:43;;;;;;;3.20;2.57;;;;;;;;;;4956674;29;20751;-89
2021/10/26 09:35:14;;;;;;;6.43;5.83;;;;;;;;;;4956589;29;20217;-89
2021/10/26 09:37:45;;;;;;;3.33;2.50;;;;;;;;;;4956794;29;20241;-88
2021/10/26 09:40:13;;;;;;;4.83;3.03;;;;;;;;;;4956878;29;20277;-89
2021/10/26 09:42:43;;;;;;;2.47;2.27;;;;;;;;;;4956644;29;20627;-89
2021/10/26 09:45:12;;;;;;;3.43;2.03;;;;;;;;;;4956291;29;20201;-89
2021/10/26 09:47:40;;;;;;;3.07;2.63;;;;;;;;;;4956348;29;20229;-89
2021/10/26 09:50:10;;;;;;;3.77;2.80;;;;;;;;;;4956338;29;20237;-88
2021/10/26 09:52:42;;;;;;;3.60;2.67;;;;;;;;;;4956522;29;20198;-88
2021/10/26 09:55:15;;;;;;;4.07;3.67;;;;;;;;;;4956086;29;20226;-88
2021/10/26 09:57:45;;;;;;;3.73;2.90;;;;;;;;;;4956086;29;20626;-88
2021/10/26 10:00:14;;;;;;;5.47;3.57;;;;;;;;;;4956312;29;20260;-89
2021/10/26 10:02:42;;;;;;;4.37;3.03;;;;;;;;;;4956588;29;20231;-88
2021/10/26 10:05:21;;;;;;;3.10;2.60;;;;;;;;;;4956115;29;20258;-87
2021/10/26 10:07:49;;;;;;;3.30;2.80;;;;;;;;;;4956071;29;20292;-88
2021/10/26 10:10:17;;;;;;;5.10;2.97;;;;;;;;;;4956872;29;20210;-88
2021/10/26 10:12:45;;;;;;;4.57;3.10;;;;;;;;;;4956087;29;20655;-89
2021/10/26 10:15:14;;;;;;;3.50;2.13;;;;;;;;;;4956099;29;20210;-88
2021/10/26 10:17:42;;;;;;;1.93;1.73;;;;;;;;;;4956039;29;20286;-88
2021/10/26 10:20:12;;;;;;;2.03;1.93;;;;;;;;;;4955465;28;20611;-89
2021/10/26 10:22:41;;;;;;;2.70;1.90;;;;;;;;;;4955823;29;20268;-88
2021/10/26 10:25:11;;;;;;;1.83;1.60;;;;;;;;;;4955643;29;20205;-89
2021/10/26 10:27:40;;;;;;;30.63;19.00;;;;;;;;;;4955762;29;20612;-89
2021/10/26 10:30:09;;;;;;;86.67;57.63;;;;;;;;;;4955323;29;20245;-89
2021/10/26 10:32:38;;;;;;;48.00;30.93;;;;;;;;;;4955604;29;20198;-90
2021/10/26 10:35:12;;;;;;;28.17;20.93;;;;;;;;;;4955893;29;20568;-89
2021/10/26 10:37:41;;;;;;;13.70;10.90;;;;;;;;;;4955426;29;20186;-89
2021/10/26 10:40:11;;;;;;;4.63;4.13;;;;;;;;;;4955641;29;20667;-89
2021/10/26 10:42:44;;;;;;;2.83;2.23;;;;;;;;;;4955443;29;20236;-89
2021/10/26 10:45:23;;;;;;;4.07;2.10;;;;;;;;;;4955445;29;20205;-88
2021/10/26 10:47:51;;;;;;;2.83;2.47;;;;;;;;;;4955218;29;20753;-88
2021/10/26 10:50:32;;;;;;;2.07;1.93;;;;;;;;;;4955482;29;20592;-90
2021/10/26 10:53:13;;;;;;;5.50;3.37;;;;;;;;;;4955993;29;20189;-89
2021/10/26 10:55:44;;;;;;;4.03;2.70;;;;;;;;;;4955172;29;20741;-89
2021/10/26 10:58:34;;;;;;;2.60;2.30;;;;;;;;;;4955376;29;20229;-89
2021/10/26 11:01:28;;;;;;;3.17;2.27;;;;;;;;;;4950792;29;20206;-90
2021/10/26 11:03:56;;;;;;;3.93;2.00;;;;;;;;;;4955382;29;20551;-89
2021/10/26 11:06:58;;;;;;;2.43;2.17;;;;;;;;;;4955128;29;20317;-89
2021/10/26 11:09:45;;;;;;;1.60;1.33;;;;;;;;;;4955005;29;20190;-90
2021/10/26 11:12:20;;;;;;;3.03;1.80;;;;;;;;;;4955233;29;20229;-90
2021/10/26 11:14:51;;;;;;;3.33;1.97;;;;;;;;;;4954917;29;20197;-90
2021/10/26 11:18:01;;;;;;;4.37;1.90;;;;;;;;;;4954894;29;20664;-89
2021/10/26 11:20:52;;;;;;;1.83;1.70;;;;;;;;;;4955269;29;20269;-89
2021/10/26 11:23:39;;;;;;;4.60;1.90;;;;;;;;;;4955392;29;20191;-90
2021/10/26 11:26:11;;;;;;;1.97;1.57;;;;;;;;;;4954920;29;20207;-90
2021/10/26 11:28:58;;;;;;;2.30;1.70;;;;;;;;;;4955122;29;20200;-91
2021/10/26 11:31:28;;;;;;;1.67;1.53;;;;;;;;;;4954366;28;20233;-90
2021/10/26 11:34:00;;;;;;;4.50;2.40;;;;;;;;;;4954601;29;20206;-89
2021/10/26 11:36:32;;;;;;;2.70;2.30;;;;;;;;;;4955285;29;20190;-89
2021/10/26 11:39:01;;;;;;;2.90;1.80;;;;;;;;;;4954674;29;20679;-89
2021/10/26 11:41:30;;;;;;;2.13;1.87;;;;;;;;;;4954661;29;20233;-88
2021/10/26 11:44:00;;;;;;;4.33;2.43;;;;;;;;;;4954581;29;20206;-89
2021/10/26 11:46:30;;;;;;;2.70;1.90;;;;;;;;;;4954672;29;20271;-89
2021/10/26 11:49:02;;;;;;;3.57;2.17;;;;;;;;;;4955288;29;20201;-89
2021/10/26 11:51:30;;;;;;;2.73;2.47;;;;;;;;;;4954754;29;20190;-88
2021/10/26 11:54:01;;;;;;;4.57;3.07;;;;;;;;;;4954672;29;20206;-89
2021/10/26 11:56:34;;;;;;;3.83;2.53;;;;;;;;;;4954567;29;20201;-89
2021/10/26 11:59:08;;;;;;;5.37;2.60;;;;;;;;;;4955045;29;20285;-89
2021/10/26 12:01:46;;;;;;;3.53;2.20;;;;;;;;;;4954853;29;20194;-89
2021/10/26 12:04:17;;;;;;;2.87;1.90;;;;;;;;;;4954748;29;20186;-88
2021/10/26 12:06:45;;;;;;;3.07;2.17;;;;;;;;;;4954622;29;20253;-89
2021/10/26 12:09:14;;;;;;;2.23;1.97;;;;;;;;;;4954518;29;20217;-89
2021/10/26 12:11:42;;;;;;;1.73;1.50;;;;;;;;;;4954388;29;20205;-87
2021/10/26 12:14:20;;;;;;;3.80;2.20;;;;;;;;;;4954558;29;20261;-89
2021/10/26 12:17:06;;;;;;;3.20;2.90;;;;;;;;;;4954698;29;20224;-88
2021/10/26 12:19:34;;;;;;;5.33;4.93;;;;;;;;;;4937778;28;20201;-89
2021/10/26 12:22:02;;;;;;;3.40;2.70;;;;;;;;;;4954519;29;20734;-87
2021/10/26 12:24:31;;;;;;;4.70;4.23;;;;;;;;;;4954314;29;20284;-89
2021/10/26 12:27:00;;;;;;;7.57;6.20;;;;;;;;;;4954107;29;20285;-89
2021/10/26 12:29:32;;;;;;;8.70;5.50;;;;;;;;;;4954144;29;20228;-89
2021/10/26 12:32:00;;;;;;;11.30;7.73;;;;;;;;;;4954403;29;20233;-89
2021/10/26 12:34:28;;;;;;;9.33;8.20;;;;;;;;;;4954338;29;20205;-89
2021/10/26 12:37:20;;;;;;;2.97;2.50;;;;;;;;;;4954475;29;20206;-89
2021/10/26 12:39:51;;;;;;;7.03;5.00;;;;;;;;;;4954288;29;20198;-88
2021/10/26 12:42:34;;;;;;;2.30;2.10;;;;;;;;;;4954784;28;20195;-89
2021/10/26 12:45:03;;;;;;;4.23;2.43;;;;;;;;;;4957810;29;20654;-88
2021/10/26 12:47:34;;;;;;;5.80;2.10;;;;;;;;;;4957455;29;20284;-89
2021/10/26 12:50:02;;;;;;;5.03;4.37;;;;;;;;;;4957524;29;20214;-89
2021/10/26 12:52:30;;;;;;;21.97;12.13;;;;;;;;;;4957664;29;20228;-89
2021/10/26 12:54:58;;;;;;;27.30;19.83;;;;;;;;;;4957340;29;20192;-89
2021/10/26 12:57:38;;;;;;;17.40;15.50;;;;;;;;;;4957879;29;20580;-88
2021/10/26 13:00:24;;;;;;;26.10;23.03;;;;;;;;;;4957932;29;20235;-89
2021/10/26 13:02:51;;;;;;;40.77;36.57;;;;;;;;;;4957187;29;20204;-88
2021/10/26 13:05:19;;;;;;;15.40;13.83;;;;;;;;;;4957527;29;20241;-89
2021/10/26 13:07:46;;;;;;;19.07;17.37;;;;;;;;;;4957239;29;20225;-88
2021/10/26 13:10:14;;;;;;;7.87;7.23;;;;;;;;;;4957227;29;20223;-88
2021/10/26 13:12:41;;;;;;;23.97;21.00;;;;;;;;;;4956906;29;20197;-89
2021/10/26 13:15:11;;;;;;;4.77;4.37;;;;;;;;;;4957319;29;20272;-89
2021/10/26 13:17:41;;;;;;;7.27;4.50;;;;;;;;;;4957427;29;20202;-89
2021/10/26 13:20:24;;;;;;;4.53;3.83;;;;;;;;;;4956852;29;20709;-88
2021/10/26 13:23:00;;;;;;;5.63;5.13;;;;;;;;;;4956894;29;20241;-88
2021/10/26 13:25:28;;;;;;;13.00;5.73;;;;;;;;;;4957047;29;20280;-88
2021/10/26 13:27:56;;;;;;;8.50;7.57;;;;;;;;;;4956637;29;20229;-88
2021/10/26 13:30:25;;;;;;;11.70;5.53;;;;;;;;;;4956425;29;20249;-88
2021/10/26 13:32:53;;;;;;;5.10;4.57;;;;;;;;;;4956708;29;20202;-89
2021/10/26 13:35:21;;;;;;;5.37;4.23;;;;;;;;;;4956573;29;20206;-88
2021/10/26 13:37:48;;;;;;;5.90;3.97;;;;;;;;;;4956728;29;20249;-87
2021/10/26 13:40:15;;;;;;;6.00;4.23;;;;;;;;;;4956563;29;20265;-88
2021/10/26 13:42:43;;;;;;;6.43;5.77;;;;;;;;;;4956846;29;20753;-89
2021/10/26 13:45:11;;;;;;;5.97;4.00;;;;;;;;;;4956322;29;20205;-89
2021/10/26 13:47:43;;;;;;;12.50;9.87;;;;;;;;;;4956287;29;20222;-89
2021/10/26 13:50:13;;;;;;;14.70;8.97;;;;;;;;;;4956153;29;20190;-88
2021/10/26 13:52:40;;;;;;;5.80;5.27;;;;;;;;;;4956311;29;20210;-89
2021/10/26 13:55:09;;;;;;;7.93;5.20;;;;;;;;;;4956364;28;20205;-88
2021/10/26 13:57:38;;;;;;;11.03;6.40;;;;;;;;;;4956069;29;20198;-88
2021/10/26 14:00:10;;;;;;;7.60;4.90;;;;;;;;;;4956314;29;20190;-88
2021/10/26 14:02:38;;;;;;;14.80;7.33;;;;;;;;;;4956169;29;20201;-88
2021/10/26 14:05:07;;;;;;;13.47;7.03;;;;;;;;;;4956284;29;20552;-88
2021/10/26 14:07:36;;;;;;;16.57;11.47;;;;;;;;;;4955977;29;20316;-88
2021/10/26 14:10:04;;;;;;;23.13;14.77;;;;;;;;;;4956075;29;20202;-89
2021/10/26 14:12:31;;;;;;;14.70;10.10;;;;;;;;;;4955949;29;20205;-89
2021/10/26 14:14:59;;;;;;;8.40;7.20;;;;;;;;;;4955816;29;20244;-88
2021/10/26 14:17:26;;;;;;;10.93;8.03;;;;;;;;;;4956004;29;20289;-88
2021/10/26 14:19:53;;;;;;;4.70;4.23;;;;;;;;;;4955646;29;20210;-88
2021/10/26 14:22:21;;;;;;;7.40;5.40;;;;;;;;;;4955888;29;20633;-89
2021/10/26 14:24:50;;;;;;;9.70;8.30;;;;;;;;;;4955787;29;20213;-89
2021/10/26 14:27:17;;;;;;;12.77;9.57;;;;;;;;;;4956072;29;20225;-89
2021/10/26 14:29:44;;;;;;;9.70;8.10;;;;;;;;;;4955497;29;20209;-88
2021/10/26 14:32:11;;;;;;;9.63;8.70;;;;;;;;;;4955861;29;20209;-88
2021/10/26 14:34:44;;;;;;;17.20;15.33;;;;;;;;;;4955463;29;20264;-88
2021/10/26 14:37:18;;;;;;;22.63;13.27;;;;;;;;;;4955400;29;20189;-88
2021/10/26 14:40:05;;;;;;;23.83;14.33;;;;;;;;;;4955667;29;20229;-88
2021/10/26 14:43:02;;;;;;;47.07;29.67;;;;;;;;;;4955369;29;20186;-88
2021/10/26 14:54:05;;;;;;;11.50;8.70;;;;;;;;;;4910461;29;20197;-88
2021/10/26 14:56:33;;;;;;;16.20;10.00;;;;;;;;;;4955186;29;20197;-88
2021/10/26 14:59:04;;;;;;;24.73;14.10;;;;;;;;;;4955019;29;20201;-88
2021/10/26 15:01:33;;;;;;;5.67;4.73;;;;;;;;;;4955485;29;20190;-88
2021/10/26 15:04:00;;;;;;;5.63;5.17;;;;;;;;;;4955537;29;20202;-88
2021/10/26 15:06:28;;;;;;;8.97;7.13;;;;;;;;;;4954598;28;20197;-88
2021/10/26 15:08:59;;;;;;;27.03;21.00;;;;;;;;;;4954841;29;20230;-89